createdAt,value
2022-12-08T00:01:17.969Z,91.22
2022-12-08T00:03:46.194Z,91.33
2022-12-08T00:06:41.118Z,91.32
2022-12-08T00:09:23.466Z,90.98
2022-12-08T00:11:53.367Z,91.57
2022-12-08T00:14:21.219Z,90.84
2022-12-08T00:16:48.927Z,90.69
2022-12-08T00:19:16.628Z,90.56
2022-12-08T00:21:45.632Z,91.18
2022-12-08T00:24:13.438Z,91.50
2022-12-08T00:26:41.155Z,90.77
2022-12-08T00:29:14.470Z,90.98
2022-12-08T00:31:44.900Z,91.46
2022-12-08T00:34:13.313Z,91.72
2022-12-08T00:36:40.948Z,92.18
2022-12-08T00:39:10.398Z,91.25
2022-12-08T00:41:55.634Z,91.55
2022-12-08T00:44:23.355Z,91.36
2022-12-08T00:46:51.069Z,91.87
2022-12-08T00:49:19.251Z,91.86
2022-12-08T00:51:46.904Z,92.11
2022-12-08T00:54:16.265Z,91.43
2022-12-08T00:56:43.903Z,91.98
2022-12-08T00:59:11.624Z,91.47
2022-12-08T01:01:39.474Z,91.81
2022-12-08T01:04:08.541Z,91.91
2022-12-08T01:06:36.584Z,91.90
2022-12-08T01:09:05.223Z,91.30
2022-12-08T01:11:34.664Z,91.14
2022-12-08T01:14:02.582Z,91.58
2022-12-08T01:16:33.002Z,91.53
2022-12-08T01:19:01.384Z,91.60
2022-12-08T01:21:29.649Z,91.92
2022-12-08T01:23:59.954Z,91.30
2022-12-08T01:26:27.736Z,91.48
2022-12-08T01:28:56.867Z,91.44
2022-12-08T01:31:24.739Z,92.52
2022-12-08T01:33:52.434Z,92.22
2022-12-08T01:36:22.036Z,92.46
2022-12-08T01:38:49.897Z,92.79
2022-12-08T01:41:19.513Z,92.33
2022-12-08T01:43:59.875Z,92.14
2022-12-08T01:46:28.959Z,92.04
2022-12-08T01:49:03.175Z,92.44
2022-12-08T01:51:34.411Z,92.83
2022-12-08T01:54:05.123Z,92.87
2022-12-08T01:56:38.023Z,93.03
2022-12-08T01:59:07.893Z,92.71
2022-12-08T02:01:35.639Z,92.57
2022-12-08T02:04:04.268Z,91.78
2022-12-08T02:06:35.955Z,91.89
2022-12-08T02:09:06.486Z,92.32
2022-12-08T02:11:34.198Z,92.52
2022-12-08T02:14:04.442Z,92.87
2022-12-08T02:16:42.957Z,92.73
2022-12-08T02:19:36.728Z,92.25
2022-12-08T02:22:12.694Z,92.45
2022-12-08T02:24:48.259Z,92.13
2022-12-08T02:27:28.757Z,92.52
2022-12-08T02:30:20.533Z,93.11
2022-12-08T02:33:16.416Z,93.07
2022-12-08T02:35:57.193Z,92.66
2022-12-08T02:38:36.510Z,92.56
2022-12-08T02:41:28.724Z,92.82
2022-12-08T02:44:03.067Z,93.53
2022-12-08T02:46:36.652Z,92.71
2022-12-08T02:49:05.105Z,93.42
2022-12-08T02:51:33.880Z,93.77
2022-12-08T02:54:03.484Z,93.79
2022-12-08T02:57:00.689Z,93.78
2022-12-08T02:59:45.135Z,93.15
2022-12-08T03:02:28.788Z,93.02
2022-12-08T03:05:04.929Z,93.24
2022-12-08T03:07:39.984Z,93.04
2022-12-08T03:10:13.452Z,93.32
2022-12-08T03:12:47.835Z,93.81
2022-12-08T03:15:19.622Z,93.49
2022-12-08T03:17:52.679Z,93.39
2022-12-08T03:20:23.449Z,93.51
2022-12-08T03:22:56.734Z,93.05
2022-12-08T03:25:28.427Z,93.23
2022-12-08T03:27:56.113Z,93.16
2022-12-08T03:30:23.786Z,92.90
2022-12-08T03:32:57.084Z,92.82
2022-12-08T03:35:29.379Z,93.55
2022-12-08T03:38:05.603Z,92.83
2022-12-08T03:40:33.240Z,92.90
2022-12-08T03:43:00.898Z,93.53
2022-12-08T03:45:28.611Z,93.15
2022-12-08T03:47:56.466Z,93.20
2022-12-08T03:50:24.349Z,92.98
2022-12-08T03:52:52.200Z,92.83
2022-12-08T03:55:22.386Z,93.13
2022-12-08T03:57:50.034Z,92.31
2022-12-08T04:00:18.329Z,93.29
2022-12-08T04:02:46.004Z,93.27
2022-12-08T04:05:13.743Z,92.77
2022-12-08T04:07:41.406Z,92.69
2022-12-08T04:10:10.332Z,92.93
2022-12-08T04:12:39.294Z,92.50
2022-12-08T04:15:08.010Z,91.93
2022-12-08T04:17:35.628Z,91.86
2022-12-08T04:20:03.929Z,91.85
2022-12-08T04:22:31.800Z,91.76
2022-12-08T04:24:59.652Z,92.85
2022-12-08T04:27:27.284Z,92.02
2022-12-08T04:29:56.290Z,92.34
2022-12-08T04:32:23.911Z,92.42
2022-12-08T04:34:51.529Z,92.49
2022-12-08T04:37:19.220Z,92.86
2022-12-08T04:39:46.843Z,92.36
2022-12-08T04:42:14.527Z,92.42
2022-12-08T04:44:42.204Z,92.46
2022-12-08T04:47:11.224Z,91.98
2022-12-08T04:49:38.917Z,92.39
2022-12-08T04:52:06.694Z,92.54
2022-12-08T04:54:34.387Z,92.38
2022-12-08T04:57:01.999Z,92.41
2022-12-08T04:59:29.608Z,92.71
2022-12-08T05:01:57.380Z,93.16
2022-12-08T05:04:26.641Z,93.47
2022-12-08T05:06:54.327Z,93.61
2022-12-08T05:09:22.241Z,92.77
2022-12-08T05:11:49.922Z,93.51
2022-12-08T05:14:19.169Z,93.81
2022-12-08T05:16:47.525Z,93.25
2022-12-08T05:19:15.925Z,92.87
2022-12-08T05:21:45.495Z,93.49
2022-12-08T05:24:13.114Z,92.69
2022-12-08T05:26:40.790Z,92.74
2022-12-08T05:29:08.500Z,92.55
2022-12-08T05:31:36.257Z,92.80
2022-12-08T05:34:03.942Z,92.35
2022-12-08T05:36:31.655Z,93.17
2022-12-08T05:39:00.616Z,92.32
2022-12-08T05:41:28.291Z,92.99
2022-12-08T05:43:55.914Z,92.91
2022-12-08T05:46:23.698Z,92.35
2022-12-08T05:48:51.478Z,92.18
2022-12-08T05:51:21.399Z,92.61
2022-12-08T05:53:50.017Z,92.34
2022-12-08T05:56:19.647Z,92.26
2022-12-08T05:58:47.690Z,92.56
2022-12-08T06:01:23.934Z,92.72
2022-12-08T06:03:51.777Z,92.51
2022-12-08T06:06:20.259Z,92.61
2022-12-08T06:08:47.926Z,92.78
2022-12-08T06:11:21.394Z,93.01
2022-12-08T06:13:49.251Z,92.78
2022-12-08T06:16:17.386Z,92.75
2022-12-08T06:18:45.157Z,92.30
2022-12-08T06:21:14.878Z,92.71
2022-12-08T06:23:43.010Z,93.08
2022-12-08T06:26:12.298Z,93.07
2022-12-08T06:28:42.295Z,93.17
2022-12-08T06:31:12.236Z,92.38
2022-12-08T06:33:40.245Z,93.19
2022-12-08T06:36:08.516Z,92.66
2022-12-08T06:38:39.322Z,92.47
2022-12-08T06:41:10.914Z,92.89
2022-12-08T06:43:38.688Z,93.13
2022-12-08T06:46:10.415Z,92.67
2022-12-08T06:48:38.164Z,92.53
2022-12-08T06:51:10.446Z,92.23
2022-12-08T06:53:38.203Z,92.57
2022-12-08T06:56:06.803Z,92.60
2022-12-08T06:58:35.421Z,93.09
2022-12-08T07:01:09.514Z,92.84
2022-12-08T07:03:38.332Z,93.31
2022-12-08T07:06:06.871Z,92.92
2022-12-08T07:08:35.520Z,92.46
2022-12-08T07:11:07.844Z,92.38
2022-12-08T07:13:35.665Z,92.97
2022-12-08T07:16:08.275Z,92.94
2022-12-08T07:18:36.348Z,93.32
2022-12-08T07:21:05.660Z,92.68
2022-12-08T07:23:33.697Z,93.11
2022-12-08T07:26:03.343Z,92.25
2022-12-08T07:28:33.011Z,92.65
2022-12-08T07:31:00.870Z,93.08
2022-12-08T07:33:29.979Z,93.22
2022-12-08T07:35:58.974Z,92.95
2022-12-08T07:38:28.096Z,92.68
2022-12-08T07:40:55.984Z,92.54
2022-12-08T07:43:24.336Z,92.98
2022-12-08T07:45:52.450Z,92.62
2022-12-08T07:48:20.474Z,92.74
2022-12-08T07:50:49.471Z,93.03
2022-12-08T07:53:17.106Z,92.66
2022-12-08T07:55:45.692Z,92.90
2022-12-08T07:58:13.359Z,93.02
2022-12-08T08:00:41.069Z,92.88
2022-12-08T08:03:10.890Z,93.01
2022-12-08T08:05:38.708Z,93.23
2022-12-08T08:08:07.911Z,92.55
2022-12-08T08:10:35.622Z,93.21
2022-12-08T08:13:03.588Z,92.82
2022-12-08T08:15:31.432Z,92.86
2022-12-08T08:17:59.197Z,92.31
2022-12-08T08:20:26.833Z,92.25
2022-12-08T08:22:54.481Z,92.15
2022-12-08T08:25:23.779Z,92.52
2022-12-08T08:27:51.872Z,92.82
2022-12-08T08:30:20.901Z,92.50
2022-12-08T08:32:49.298Z,92.67
2022-12-08T08:35:17.702Z,92.32
2022-12-08T08:37:48.797Z,92.52
2022-12-08T08:40:17.452Z,92.91
2022-12-08T08:42:46.439Z,92.76
2022-12-08T08:45:14.076Z,92.71
2022-12-08T08:47:41.922Z,92.92
2022-12-08T08:50:10.072Z,92.55
2022-12-08T08:52:37.760Z,92.79
2022-12-08T08:55:05.922Z,92.07
2022-12-08T08:57:33.563Z,92.28
2022-12-08T09:00:03.177Z,91.99
2022-12-08T09:02:31.142Z,92.50
2022-12-08T09:04:58.866Z,92.49
2022-12-08T09:07:26.558Z,92.53
2022-12-08T09:10:01.259Z,92.59
2022-12-08T09:12:29.239Z,92.18
2022-12-08T09:14:56.926Z,92.11
2022-12-08T09:17:25.959Z,92.02
2022-12-08T09:19:53.634Z,92.15
2022-12-08T09:22:21.938Z,92.88
2022-12-08T09:24:49.580Z,92.63
2022-12-08T09:27:17.244Z,92.25
2022-12-08T09:29:44.897Z,92.79
2022-12-08T09:32:12.516Z,92.81
2022-12-08T09:34:41.595Z,92.85
2022-12-08T09:37:09.329Z,92.94
2022-12-08T09:39:37.071Z,92.32
2022-12-08T09:42:07.785Z,92.41
2022-12-08T09:44:51.251Z,92.09
2022-12-08T09:47:23.793Z,92.66
2022-12-08T09:49:59.087Z,92.57
2022-12-08T09:52:31.180Z,91.74
2022-12-08T09:55:01.659Z,92.34
2022-12-08T09:57:30.836Z,91.94
2022-12-08T10:00:05.506Z,91.70
2022-12-08T10:02:33.584Z,92.19
2022-12-08T10:05:02.722Z,92.59
2022-12-08T10:07:39.236Z,91.96
2022-12-08T10:10:19.041Z,92.04
2022-12-08T10:12:55.096Z,92.15
2022-12-08T10:15:42.571Z,92.30
2022-12-08T10:18:14.816Z,91.92
2022-12-08T10:20:47.352Z,92.21
2022-12-08T10:23:25.720Z,91.32
2022-12-08T10:26:00.100Z,92.25
2022-12-08T10:28:27.765Z,92.39
2022-12-08T10:30:55.790Z,91.34
2022-12-08T10:33:24.372Z,91.53
2022-12-08T10:35:55.038Z,91.86
2022-12-08T10:38:27.320Z,91.82
2022-12-08T10:41:01.852Z,91.80
2022-12-08T10:43:29.545Z,91.82
2022-12-08T10:46:09.509Z,91.35
2022-12-08T10:48:37.296Z,91.72
2022-12-08T10:51:06.542Z,92.49
2022-12-08T10:53:45.206Z,91.48
2022-12-08T10:56:16.368Z,92.01
2022-12-08T10:58:46.361Z,91.73
2022-12-08T11:01:17.707Z,91.59
2022-12-08T11:03:48.729Z,91.41
2022-12-08T11:06:20.690Z,91.64
2022-12-08T11:08:52.453Z,91.56
2022-12-08T11:11:29.050Z,91.25
2022-12-08T11:13:57.480Z,91.22
2022-12-08T11:16:25.257Z,91.57
2022-12-08T11:18:58.085Z,91.16
2022-12-08T11:21:36.912Z,91.22
2022-12-08T11:24:23.348Z,90.97
2022-12-08T11:26:54.501Z,91.91
2022-12-08T11:29:22.710Z,91.89
2022-12-08T11:31:54.514Z,92.01
2022-12-08T11:34:31.611Z,91.92
2022-12-08T11:37:00.855Z,91.79
2022-12-08T11:39:31.936Z,91.83
2022-12-08T11:42:03.737Z,92.20
2022-12-08T11:44:39.853Z,91.58
2022-12-08T11:47:15.207Z,91.73
2022-12-08T11:49:44.255Z,91.95
2022-12-08T11:52:22.747Z,92.20
2022-12-08T11:54:59.073Z,91.80
2022-12-08T11:57:29.568Z,92.41
2022-12-08T11:59:59.280Z,91.41
2022-12-08T12:02:30.130Z,91.15
2022-12-08T12:05:02.062Z,91.55
2022-12-08T12:07:51.734Z,91.79
2022-12-08T12:10:33.700Z,90.90
2022-12-08T12:13:14.192Z,90.78
2022-12-08T12:16:08.817Z,91.32
2022-12-08T12:18:45.339Z,90.44
2022-12-08T12:21:19.260Z,89.38
2022-12-08T12:23:54.450Z,89.90
2022-12-08T12:26:23.502Z,88.88
2022-12-08T12:28:54.414Z,90.43
2022-12-08T12:31:25.988Z,89.48
2022-12-08T12:33:57.363Z,88.62
2022-12-08T12:36:25.596Z,87.27
2022-12-08T12:39:01.991Z,87.30
2022-12-08T12:41:33.833Z,87.58
2022-12-08T12:44:24.390Z,86.49
2022-12-08T12:46:57.760Z,87.13
2022-12-08T12:50:16.112Z,86.62
2022-12-08T12:52:48.522Z,86.23
2022-12-08T12:55:52.236Z,83.81
2022-12-08T12:58:39.010Z,82.87
2022-12-08T13:01:39.836Z,82.91
2022-12-08T13:04:10.661Z,82.23
2022-12-08T13:06:42.125Z,83.98
2022-12-08T13:09:21.995Z,81.93
2022-12-08T13:11:53.595Z,84.32
2022-12-08T13:14:32.093Z,83.49
2022-12-08T13:17:02.169Z,85.40
2022-12-08T13:19:34.450Z,85.93
2022-12-08T13:22:02.393Z,85.98
2022-12-08T13:24:36.076Z,86.19
2022-12-08T13:27:34.109Z,86.19
2022-12-08T13:30:37.638Z,85.99
2022-12-08T13:33:19.795Z,86.67
2022-12-08T13:35:58.473Z,87.54
2022-12-08T13:38:30.741Z,87.80
2022-12-08T13:41:02.464Z,87.96
2022-12-08T13:43:48.381Z,87.78
2022-12-08T13:47:16.647Z,87.62
2022-12-08T13:58:06.110Z,87.56
2022-12-08T14:00:34.099Z,88.07
2022-12-08T14:03:03.209Z,87.90
2022-12-08T14:06:11.166Z,87.29
2022-12-08T14:11:34.497Z,85.21
2022-12-08T14:14:04.207Z,85.59
2022-12-08T14:16:38.209Z,86.36
2022-12-08T14:19:07.747Z,86.46
2022-12-08T14:21:36.747Z,86.29
2022-12-08T14:24:04.549Z,86.73
2022-12-08T14:26:35.539Z,86.48
2022-12-08T14:29:03.312Z,87.17
2022-12-08T14:31:31.082Z,87.29
2022-12-08T14:33:58.869Z,85.85
2022-12-08T14:36:26.876Z,86.68
2022-12-08T14:38:57.623Z,86.61
2022-12-08T14:41:33.801Z,87.05
2022-12-08T14:44:02.844Z,87.33
2022-12-08T14:46:30.609Z,86.98
2022-12-08T14:48:58.776Z,86.61
2022-12-08T14:51:32.125Z,87.14
2022-12-08T14:54:06.362Z,86.76
2022-12-08T14:56:39.177Z,87.57
2022-12-08T14:59:13.600Z,87.78
2022-12-08T15:01:42.401Z,87.64
2022-12-08T15:04:18.363Z,88.63
2022-12-08T15:06:53.696Z,87.59
2022-12-08T15:09:32.944Z,88.41
2022-12-08T15:12:04.557Z,88.57
2022-12-08T15:14:35.156Z,88.93
2022-12-08T15:17:02.866Z,88.67
2022-12-08T15:19:32.316Z,88.97
2022-12-08T15:22:08.661Z,88.89
2022-12-08T15:24:37.707Z,88.82
2022-12-08T15:27:05.355Z,88.80
2022-12-08T15:29:33.039Z,89.72
2022-12-08T15:32:02.680Z,89.92
2022-12-08T15:34:31.547Z,89.94
2022-12-08T15:36:59.266Z,90.49
2022-12-08T15:39:33.400Z,90.75
2022-12-08T15:42:04.106Z,91.27
2022-12-08T15:44:32.920Z,90.52
2022-12-08T15:47:01.844Z,90.99
2022-12-08T15:49:29.588Z,90.58
2022-12-08T15:52:09.300Z,90.59
2022-12-08T15:54:39.458Z,90.32
2022-12-08T15:57:22.223Z,90.89
2022-12-08T16:00:04.683Z,90.40
2022-12-08T16:02:56.324Z,90.31
2022-12-08T16:05:42.908Z,90.74
2022-12-08T16:08:30.129Z,90.38
2022-12-08T16:14:47.113Z,90.13
2022-12-08T16:16:51.911Z,90.83
2022-12-08T16:19:19.610Z,90.21
2022-12-08T16:24:34.975Z,90.46
2022-12-08T16:29:52.156Z,91.14
2022-12-08T16:32:19.827Z,90.82
2022-12-08T16:34:47.681Z,91.42
2022-12-08T16:37:16.406Z,91.00
2022-12-08T16:39:46.092Z,91.50
2022-12-08T16:42:32.396Z,90.90
2022-12-08T16:45:03.855Z,90.91
2022-12-08T16:47:32.055Z,90.82
2022-12-08T16:49:59.749Z,91.43
2022-12-08T16:52:27.467Z,91.38
2022-12-08T16:54:55.096Z,90.91
2022-12-08T16:57:22.789Z,91.26
2022-12-08T16:59:50.461Z,91.65
2022-12-08T17:02:19.539Z,91.69
2022-12-08T17:04:47.386Z,91.77
2022-12-08T17:07:15.085Z,91.29
2022-12-08T17:09:42.766Z,91.46
2022-12-08T17:12:11.664Z,91.56
2022-12-08T17:14:39.351Z,91.52
2022-12-08T17:17:07.171Z,91.98
2022-12-08T17:19:36.249Z,91.98
2022-12-08T17:22:04.496Z,91.47
2022-12-08T17:24:32.540Z,91.50
2022-12-08T17:27:03.976Z,91.47
2022-12-08T17:29:32.400Z,91.82
2022-12-08T17:32:00.372Z,92.10
2022-12-08T17:34:28.064Z,91.35
2022-12-08T17:36:57.174Z,91.21
2022-12-08T17:39:25.276Z,92.00
2022-12-08T17:41:52.935Z,92.06
2022-12-08T17:44:21.113Z,92.26
2022-12-08T17:46:52.952Z,92.32
2022-12-08T17:49:23.565Z,91.99
2022-12-08T17:51:53.251Z,92.12
2022-12-08T17:54:26.523Z,91.88
2022-12-08T17:56:55.163Z,91.98
2022-12-08T17:59:22.835Z,92.45
2022-12-08T18:01:52.446Z,92.46
2022-12-08T18:04:20.400Z,92.62
2022-12-08T18:06:48.145Z,92.47
2022-12-08T18:09:16.460Z,92.66
2022-12-08T18:11:47.046Z,92.24
2022-12-08T18:14:15.117Z,92.54
2022-12-08T18:16:44.083Z,92.37
2022-12-08T18:19:12.670Z,92.24
2022-12-08T18:21:40.271Z,92.39
2022-12-08T18:24:08.759Z,92.41
2022-12-08T18:26:36.361Z,92.46
2022-12-08T18:29:05.392Z,92.59
2022-12-08T18:31:33.083Z,92.58
2022-12-08T18:34:00.808Z,92.57
2022-12-08T18:36:28.493Z,92.56
2022-12-08T18:38:56.349Z,92.36
2022-12-08T18:41:25.934Z,92.59
2022-12-08T18:43:54.297Z,92.52
2022-12-08T18:46:23.871Z,92.47
2022-12-08T18:48:53.346Z,92.74
2022-12-08T18:51:23.044Z,92.50
2022-12-08T18:53:51.108Z,92.30
2022-12-08T18:56:23.701Z,92.44
2022-12-08T18:58:51.452Z,92.50
2022-12-08T19:01:19.686Z,92.25
2022-12-08T19:06:38.441Z,92.35
2022-12-08T19:09:06.483Z,92.64
2022-12-08T19:11:34.152Z,92.49
2022-12-08T19:14:01.844Z,92.11
2022-12-08T19:16:29.601Z,92.45
2022-12-08T19:18:58.681Z,92.64
2022-12-08T19:21:26.364Z,92.44
2022-12-08T19:23:55.796Z,92.51
2022-12-08T19:26:23.540Z,92.87
2022-12-08T19:28:51.248Z,92.36
2022-12-08T19:31:19.025Z,92.43
2022-12-08T19:33:46.802Z,92.75
2022-12-08T19:36:18.746Z,92.35
2022-12-08T19:39:04.077Z,92.48
2022-12-08T19:42:01.371Z,92.71
2022-12-08T19:44:47.669Z,92.49
2022-12-08T19:47:16.062Z,92.36
2022-12-08T19:49:43.601Z,92.71
2022-12-08T19:52:12.618Z,92.31
2022-12-08T19:54:40.318Z,92.56
2022-12-08T19:57:08.042Z,92.31
2022-12-08T19:59:35.730Z,92.29
2022-12-08T20:02:03.476Z,92.46
2022-12-08T20:04:31.292Z,92.47
2022-12-08T20:06:59.016Z,92.46
2022-12-08T20:09:28.292Z,92.44
2022-12-08T20:11:55.977Z,92.64
2022-12-08T20:14:23.980Z,92.85
2022-12-08T20:16:52.041Z,92.55
2022-12-08T20:19:19.905Z,92.35
2022-12-08T20:21:48.382Z,92.44
2022-12-08T20:24:17.208Z,92.27
2022-12-08T20:26:46.302Z,92.33
2022-12-08T20:29:16.849Z,92.68
2022-12-08T20:31:44.840Z,92.04
2022-12-08T20:34:15.486Z,92.17
2022-12-08T20:36:43.161Z,92.63
2022-12-08T20:39:13.598Z,92.81
2022-12-08T20:41:41.557Z,92.13
2022-12-08T20:44:12.381Z,92.59
2022-12-08T20:46:41.841Z,92.49
2022-12-08T20:49:12.813Z,91.99
2022-12-08T20:51:41.544Z,91.96
2022-12-08T20:54:09.681Z,92.42
2022-12-08T20:56:38.795Z,91.78
2022-12-08T20:59:08.413Z,92.47
2022-12-08T21:01:37.524Z,92.12
2022-12-08T21:04:05.770Z,92.58
2022-12-08T21:06:33.586Z,92.06
2022-12-08T21:09:02.714Z,92.47
2022-12-08T21:11:37.481Z,92.37
2022-12-08T21:14:05.345Z,91.85
2022-12-08T21:16:33.358Z,92.00
2022-12-08T21:19:02.448Z,92.55
2022-12-08T21:21:30.309Z,91.65
2022-12-08T21:23:57.989Z,91.97
2022-12-08T21:26:26.506Z,91.98
2022-12-08T21:28:55.307Z,92.42
2022-12-08T21:31:25.329Z,91.76
2022-12-08T21:33:53.221Z,91.72
2022-12-08T21:36:23.032Z,92.20
2022-12-08T21:38:51.291Z,91.80
2022-12-08T21:41:41.658Z,91.66
2022-12-08T21:44:12.901Z,92.26
2022-12-08T21:46:40.705Z,91.62
2022-12-08T21:49:08.951Z,91.98
2022-12-08T21:51:42.196Z,92.24
2022-12-08T21:54:15.025Z,91.40
2022-12-08T21:56:46.560Z,91.92
2022-12-08T21:59:15.370Z,91.68
2022-12-08T22:01:43.839Z,91.71
2022-12-08T22:04:12.164Z,91.81
2022-12-08T22:06:41.520Z,92.35
2022-12-08T22:09:11.812Z,92.06
2022-12-08T22:11:39.820Z,92.12
2022-12-08T22:14:13.832Z,91.60
2022-12-08T22:16:42.527Z,91.75
2022-12-08T22:19:10.673Z,91.68
2022-12-08T22:21:38.487Z,91.80
2022-12-08T22:24:08.636Z,92.07
2022-12-08T22:26:36.746Z,92.33
2022-12-08T22:29:04.501Z,91.80
2022-12-08T22:31:32.945Z,91.67
2022-12-08T22:34:01.004Z,92.05
2022-12-08T22:36:29.848Z,92.01
2022-12-08T22:38:57.571Z,91.60
2022-12-08T22:41:26.507Z,91.61
2022-12-08T22:43:54.350Z,92.30
2022-12-08T22:46:24.457Z,92.06
2022-12-08T22:48:53.186Z,92.00
2022-12-08T22:51:21.396Z,91.49
2022-12-08T22:53:49.410Z,92.01
2022-12-08T22:56:18.652Z,91.54
2022-12-08T22:58:48.378Z,91.76
2022-12-08T23:01:24.931Z,91.52
2022-12-08T23:03:52.861Z,91.32
2022-12-08T23:06:20.611Z,91.65
2022-12-08T23:08:48.481Z,92.38
2022-12-08T23:11:16.331Z,91.80
2022-12-08T23:13:44.165Z,92.38
2022-12-08T23:16:14.392Z,91.97
2022-12-08T23:18:44.589Z,92.32
2022-12-08T23:21:15.503Z,91.89
2022-12-08T23:23:43.882Z,92.10
2022-12-08T23:26:15.951Z,91.74
2022-12-08T23:28:43.643Z,92.33
2022-12-08T23:31:11.346Z,91.94
2022-12-08T23:33:40.554Z,92.01
2022-12-08T23:36:09.193Z,92.29
2022-12-08T23:38:37.003Z,91.90
2022-12-08T23:41:06.574Z,92.22
2022-12-08T23:43:35.222Z,91.69
2022-12-08T23:46:03.576Z,91.84
2022-12-08T23:48:34.526Z,91.97
2022-12-08T23:51:03.847Z,92.08
2022-12-08T23:53:34.073Z,91.85
2022-12-08T23:56:02.777Z,91.69
2022-12-08T23:58:31.397Z,91.92
